Terminal Aerodrome Forecast
Issued by NWS

Home | Current Version | Previous Version | Text Only | Print | Product List | Glossary On
Versions: 1 2 3 4 5 6 7 8 9 10 11 12 13 14 15 16 17 18 19 20 21 22 23 24 25 26 27 28 29 30 31 32 33 34 35 36 37 38 39 40 41
000
FTUS44 KHGX 272325
TAFLBX
TAF
KLBX 272325Z 2800/2824 34012G19KT 5SM -SHRA BR BKN006 OVC012
     FM280300 35014G20KT 6SM -RA BR OVC009
     FM280900 35013KT 3SM SHRA BR OVC009=

USA.gov is the U.S. government's official web portal to all federal, state and local government web resources and services.